createdAt,value
2014-06-25T00:00:27.737Z,20.78
2014-06-25T00:01:32.409Z,20.62
2014-06-25T00:02:37.100Z,20.8
2014-06-25T00:03:42.086Z,20.76
2014-06-25T00:04:46.777Z,20.68
2014-06-25T00:05:51.451Z,20.63
2014-06-25T00:06:56.140Z,20.58
2014-06-25T00:08:00.813Z,20.57
2014-06-25T00:09:05.799Z,20.52
2014-06-25T00:10:10.786Z,20.5
2014-06-25T00:11:15.461Z,20.46
2014-06-25T00:12:20.448Z,20.28
2014-06-25T00:13:25.137Z,20.24
2014-06-25T00:14:30.108Z,20.24
2014-06-25T00:15:34.798Z,20.28
2014-06-25T00:16:39.487Z,20.44
2014-06-25T00:17:44.161Z,20.45
2014-06-25T00:18:49.148Z,20.44
2014-06-25T00:19:54.134Z,20.51
2014-06-25T00:20:58.823Z,20.52
2014-06-25T00:22:03.512Z,20.55
2014-06-25T00:23:08.499Z,20.47
2014-06-25T00:24:13.173Z,20.66
2014-06-25T00:25:17.863Z,20.76
2014-06-25T00:26:22.552Z,20.9
2014-06-25T00:27:27.241Z,20.99
2014-06-25T00:28:31.930Z,20.81
2014-06-25T00:29:37.213Z,20.7
2014-06-25T00:30:41.887Z,20.8
2014-06-25T00:31:46.594Z,20.78
2014-06-25T00:32:51.299Z,20.82
2014-06-25T00:33:55.973Z,20.64
2014-06-25T00:35:00.960Z,20.47
2014-06-25T00:36:05.648Z,20.62
2014-06-25T00:37:10.323Z,20.5
2014-06-25T00:38:15.013Z,20.14
2014-06-25T00:39:19.701Z,20.04
2014-06-25T00:40:24.391Z,20.24
2014-06-25T00:41:29.377Z,20.42
2014-06-25T00:42:34.051Z,20.54
2014-06-25T00:43:39.037Z,20.49
2014-06-25T00:44:43.727Z,20.4
2014-06-25T00:45:48.700Z,20.26
2014-06-25T00:46:53.389Z,20.24
2014-06-25T00:47:58.079Z,20.28
2014-06-25T00:49:02.752Z,20.27
2014-06-25T00:50:07.441Z,20.46
2014-06-25T00:51:12.130Z,20.49
2014-06-25T00:52:16.820Z,20.59
2014-06-25T00:53:21.806Z,20.61
2014-06-25T00:54:26.480Z,20.52
2014-06-25T00:55:31.170Z,20.54
2014-06-25T00:56:35.859Z,20.38
2014-06-25T00:57:40.846Z,20.57
2014-06-25T00:58:45.832Z,20.56
2014-06-25T00:59:50.507Z,20.64
2014-06-25T01:00:55.197Z,20.37
2014-06-25T01:01:59.887Z,20.18
2014-06-25T01:03:04.857Z,20.08
2014-06-25T01:04:09.547Z,20
2014-06-25T01:05:14.533Z,20.02
2014-06-25T01:06:19.519Z,20.24
2014-06-25T01:07:24.208Z,20.24
2014-06-25T01:08:28.882Z,20.34
2014-06-25T01:09:33.573Z,20.3
2014-06-25T01:10:38.261Z,20.52
2014-06-25T01:11:42.935Z,20.42
2014-06-25T01:12:47.625Z,20.42
2014-06-25T01:13:52.613Z,20.3
2014-06-25T01:14:57.584Z,20.3
2014-06-25T01:16:02.273Z,20.47
2014-06-25T01:17:06.963Z,20.3
2014-06-25T01:18:11.933Z,20.46
2014-06-25T01:19:16.624Z,20.31
2014-06-25T01:20:21.312Z,20.35
2014-06-25T01:21:25.987Z,20.54
2014-06-25T01:22:30.973Z,20.58
2014-06-25T01:23:35.663Z,20.58
2014-06-25T01:24:40.336Z,20.48
2014-06-25T01:25:45.025Z,20.49
2014-06-25T01:26:49.717Z,20.58
2014-06-25T01:27:54.405Z,20.56
2014-06-25T01:28:59.079Z,20.52
2014-06-25T01:30:03.770Z,20.54
2014-06-25T01:31:08.458Z,20.33
2014-06-25T01:32:13.148Z,20.48
2014-06-25T01:33:17.837Z,20.29
2014-06-25T01:34:22.528Z,20.27
2014-06-25T01:35:27.201Z,20.14
2014-06-25T01:36:31.890Z,20.1
2014-06-25T01:37:36.877Z,19.93
2014-06-25T01:38:41.566Z,19.85
2014-06-25T01:39:46.240Z,20.11
2014-06-25T01:40:51.228Z,20.21
2014-06-25T01:41:55.918Z,20.25
2014-06-25T01:43:00.606Z,20.22
2014-06-25T01:44:05.281Z,20.22
2014-06-25T01:45:09.986Z,20.41
2014-06-25T01:46:14.675Z,20.24
2014-06-25T01:47:19.365Z,20.4
2014-06-25T01:48:24.039Z,20.44
2014-06-25T01:49:28.728Z,20.19
2014-06-25T01:50:33.402Z,20.17
2014-06-25T01:51:38.091Z,20.03
2014-06-25T01:52:42.771Z,20.26
2014-06-25T01:53:47.757Z,20.21
2014-06-25T01:54:52.449Z,20.3
2014-06-25T01:55:57.137Z,20.02
2014-06-25T01:57:01.812Z,20.1
2014-06-25T01:58:06.798Z,20.14
2014-06-25T01:59:11.784Z,20.21
2014-06-25T02:00:16.458Z,20.06
2014-06-25T02:01:21.147Z,20.01
2014-06-25T02:02:25.837Z,20.02
2014-06-25T02:03:30.526Z,19.86
2014-06-25T02:04:35.200Z,19.79
2014-06-25T02:05:39.890Z,19.96
2014-06-25T02:06:44.875Z,19.92
2014-06-25T02:07:49.910Z,20.14
2014-06-25T02:08:54.585Z,20
2014-06-25T02:09:59.571Z,20.01
2014-06-25T02:11:04.557Z,19.78
2014-06-25T02:12:09.543Z,20.01
2014-06-25T02:13:14.218Z,19.75
2014-06-25T02:14:18.907Z,19.93
2014-06-25T02:15:23.596Z,19.94
2014-06-25T02:16:28.270Z,19.92
2014-06-25T02:17:32.959Z,20.14
2014-06-25T02:18:37.633Z,20.14
2014-06-25T02:19:42.620Z,19.99
2014-06-25T02:20:47.309Z,20.27
2014-06-25T02:21:52.281Z,20.36
2014-06-25T02:22:56.970Z,20.31
2014-06-25T02:24:01.661Z,20.3
2014-06-25T02:25:06.349Z,20.09
2014-06-25T02:26:11.023Z,20.17
2014-06-25T02:27:15.713Z,20.23
2014-06-25T02:28:20.387Z,20.34
2014-06-25T02:29:25.076Z,20.3
2014-06-25T02:30:29.766Z,20.38
2014-06-25T02:31:34.455Z,20.37
2014-06-25T02:32:39.129Z,19.97
2014-06-25T02:33:44.115Z,20.17
2014-06-25T02:34:49.102Z,19.87
2014-06-25T02:35:54.089Z,20.12
2014-06-25T02:36:58.780Z,20.1
2014-06-25T02:38:02.781Z,20.04
2014-06-25T02:39:07.470Z,20.2
2014-06-25T02:40:12.144Z,20.17
2014-06-25T02:41:16.834Z,20.31
2014-06-25T02:42:21.836Z,20.04
2014-06-25T02:43:26.807Z,19.88
2014-06-25T02:44:31.497Z,19.97
2014-06-25T02:45:36.186Z,19.76
2014-06-25T02:46:41.157Z,19.86
2014-06-25T02:47:46.143Z,19.92
2014-06-25T02:48:50.834Z,19.95
2014-06-25T02:49:55.819Z,20.18
2014-06-25T02:51:00.509Z,20.09
2014-06-25T02:52:05.198Z,20.12
2014-06-25T02:53:10.185Z,19.92
2014-06-25T02:54:14.859Z,19.96
2014-06-25T02:55:19.548Z,20
2014-06-25T02:56:24.222Z,20.02
2014-06-25T02:57:28.911Z,20.04
2014-06-25T02:58:33.600Z,19.93
2014-06-25T02:59:38.571Z,19.98
2014-06-25T03:00:43.558Z,19.93
2014-06-25T03:01:48.232Z,19.9
2014-06-25T03:02:53.217Z,19.91
2014-06-25T03:03:57.909Z,19.9
2014-06-25T03:05:02.583Z,20.12
2014-06-25T03:06:07.569Z,20.1
2014-06-25T03:07:12.259Z,20
2014-06-25T03:08:17.245Z,20.07
2014-06-25T03:09:21.919Z,20.02
2014-06-25T03:10:26.905Z,20
2014-06-25T03:11:30.906Z,20.18
2014-06-25T03:12:35.597Z,20.22
2014-06-25T03:13:40.285Z,20.09
2014-06-25T03:14:44.975Z,20
2014-06-25T03:15:49.650Z,20.14
2014-06-25T03:16:54.635Z,20.11
2014-06-25T03:17:59.624Z,20.2
2014-06-25T03:19:04.297Z,20.05
2014-06-25T03:20:08.971Z,19.56
2014-06-25T03:21:12.973Z,19.16
2014-06-25T03:22:17.663Z,19.18
2014-06-25T03:23:22.633Z,19.07
2014-06-25T03:24:27.323Z,19.2
2014-06-25T03:25:32.012Z,19.14
2014-06-25T03:26:36.983Z,19.25
2014-06-25T03:27:41.672Z,19.37
2014-06-25T03:28:45.674Z,19.33
2014-06-25T03:29:50.348Z,19.19
2014-06-25T03:30:55.037Z,19.22
2014-06-25T03:31:59.728Z,19.38
2014-06-25T03:33:04.402Z,19.46
2014-06-25T03:34:09.389Z,19.57
2014-06-25T03:35:14.063Z,19.51
2014-06-25T03:36:18.751Z,19.47
2014-06-25T03:37:23.442Z,19.51
2014-06-25T03:38:28.428Z,19.56
2014-06-25T03:39:33.101Z,19.47
2014-06-25T03:40:38.103Z,19.72
2014-06-25T03:41:43.089Z,19.72
2014-06-25T03:42:48.076Z,19.78
2014-06-25T03:43:52.749Z,19.7
2014-06-25T03:44:57.441Z,19.44
2014-06-25T03:46:02.130Z,19.44
2014-06-25T03:47:06.820Z,19.54
2014-06-25T03:48:11.509Z,19.66
2014-06-25T03:49:16.198Z,19.7
2014-06-25T03:50:20.887Z,19.78
2014-06-25T03:51:25.874Z,19.6
2014-06-25T03:52:30.548Z,19.72
2014-06-25T03:53:35.225Z,19.72
2014-06-25T03:54:40.212Z,19.63
2014-06-25T03:55:44.902Z,19.66
2014-06-25T03:56:49.575Z,19.8
2014-06-25T03:57:54.265Z,19.92
2014-06-25T03:58:58.956Z,19.74
2014-06-25T04:00:03.630Z,19.78
2014-06-25T04:01:08.319Z,20.1
2014-06-25T04:02:13.293Z,20.02
2014-06-25T04:03:17.984Z,20.06
2014-06-25T04:04:22.657Z,20.02
2014-06-25T04:05:27.643Z,19.94
2014-06-25T04:06:32.318Z,20.02
2014-06-25T04:07:37.006Z,19.9
2014-06-25T04:08:41.990Z,19.83
2014-06-25T04:09:46.965Z,19.86
2014-06-25T04:10:51.653Z,19.73
2014-06-25T04:11:56.344Z,19.5
2014-06-25T04:13:01.315Z,19.41
2014-06-25T04:14:06.303Z,19.71
2014-06-25T04:15:10.992Z,19.62
2014-06-25T04:16:15.681Z,19.86
2014-06-25T04:17:20.370Z,19.77
2014-06-25T04:18:25.060Z,19.62
2014-06-25T04:19:29.734Z,19.54
2014-06-25T04:20:34.423Z,19.62
2014-06-25T04:21:39.409Z,19.64
2014-06-25T04:22:44.396Z,19.69
2014-06-25T04:23:49.070Z,19.66
2014-06-25T04:24:53.759Z,19.8
2014-06-25T04:25:58.746Z,19.73
2014-06-25T04:27:03.733Z,19.58
2014-06-25T04:28:08.408Z,19.5
2014-06-25T04:29:13.096Z,19.72
2014-06-25T04:30:18.084Z,19.42
2014-06-25T04:31:23.053Z,19.61
2014-06-25T04:32:27.743Z,19.55
2014-06-25T04:33:32.714Z,19.44
2014-06-25T04:34:37.700Z,19.49
2014-06-25T04:35:42.390Z,19.51
2014-06-25T04:36:47.063Z,19.3
2014-06-25T04:37:52.050Z,19.53
2014-06-25T04:38:56.739Z,19.48
2014-06-25T04:40:01.711Z,19.5
2014-06-25T04:41:06.697Z,19.69
2014-06-25T04:42:11.387Z,19.52
2014-06-25T04:43:16.061Z,19.48
2014-06-25T04:44:20.750Z,19.47
2014-06-25T04:45:25.424Z,19.32
2014-06-25T04:46:30.114Z,19.22
2014-06-25T04:47:34.803Z,19.26
2014-06-25T04:48:39.477Z,19.57
2014-06-25T04:49:44.167Z,19.78
2014-06-25T04:50:48.856Z,19.75
2014-06-25T04:51:53.546Z,19.45
2014-06-25T04:52:58.235Z,19.34
2014-06-25T04:54:02.926Z,19.45
2014-06-25T04:55:07.599Z,19.61
2014-06-25T04:56:12.596Z,19.66
2014-06-25T04:57:17.279Z,19.66
2014-06-25T04:58:21.969Z,19.56
2014-06-25T04:59:26.643Z,19.42
2014-06-25T05:00:31.333Z,19.6
2014-06-25T05:01:36.318Z,19.53
2014-06-25T05:02:40.992Z,19.41
2014-06-25T05:03:45.978Z,19.36
2014-06-25T05:04:50.965Z,19.46
2014-06-25T05:05:55.936Z,19.37
2014-06-25T05:07:00.624Z,19.36
2014-06-25T05:08:05.613Z,19.33
2014-06-25T05:09:10.287Z,19.28
2014-06-25T05:10:14.976Z,18.98
2014-06-25T05:11:19.948Z,18.88
2014-06-25T05:12:24.636Z,18.76
2014-06-25T05:13:29.607Z,18.8
2014-06-25T05:14:34.297Z,18.73
2014-06-25T05:15:38.986Z,18.95
2014-06-25T05:16:43.660Z,18.93
2014-06-25T05:17:48.646Z,18.94
2014-06-25T05:18:53.633Z,19.12
2014-06-25T05:19:58.322Z,18.88
2014-06-25T05:21:02.997Z,19.08
2014-06-25T05:22:07.688Z,19.1
2014-06-25T05:23:12.690Z,18.84
2014-06-25T05:24:17.677Z,18.97
2014-06-25T05:25:22.648Z,19.07
2014-06-25T05:26:26.946Z,19.18
2014-06-25T05:27:31.651Z,19.2
2014-06-25T05:28:36.340Z,19.2
2014-06-25T05:29:41.029Z,18.96
2014-06-25T05:30:45.704Z,19.15
2014-06-25T05:31:50.392Z,19.14
2014-06-25T05:32:55.379Z,19.2
2014-06-25T05:34:00.052Z,19.1
2014-06-25T05:35:04.743Z,19.13
2014-06-25T05:36:09.434Z,19.28
2014-06-25T05:37:14.404Z,19.36
2014-06-25T05:38:19.094Z,19.32
2014-06-25T05:39:24.080Z,19.4
2014-06-25T05:40:28.754Z,19.42
2014-06-25T05:41:33.443Z,19.43
2014-06-25T05:42:38.117Z,19.34
2014-06-25T05:43:43.104Z,19.23
2014-06-25T05:44:47.777Z,19.15
2014-06-25T05:45:52.467Z,19.16
2014-06-25T05:46:57.155Z,19.16
2014-06-25T05:48:02.126Z,19.64
2014-06-25T05:49:06.816Z,19.73
2014-06-25T05:50:11.804Z,19.69
2014-06-25T05:51:16.478Z,19.57
2014-06-25T05:52:21.464Z,19.3
2014-06-25T05:53:26.154Z,19.17
2014-06-25T05:54:30.828Z,19.35
2014-06-25T05:55:35.814Z,19.26
2014-06-25T05:56:40.504Z,19.55
2014-06-25T05:57:45.193Z,19.57
2014-06-25T05:58:50.179Z,19.51
2014-06-25T05:59:54.853Z,19.56
2014-06-25T06:00:59.839Z,19.6
2014-06-25T06:02:04.826Z,19.5
2014-06-25T06:03:09.502Z,19.54
2014-06-25T06:04:14.190Z,19.74
2014-06-25T06:05:18.880Z,19.8
2014-06-25T06:06:22.882Z,19.84
2014-06-25T06:07:27.571Z,19.9
2014-06-25T06:08:32.246Z,19.8
2014-06-25T06:09:36.936Z,20.12
2014-06-25T06:10:41.907Z,20.36
2014-06-25T06:11:46.596Z,20.57
2014-06-25T06:12:51.286Z,20.66
2014-06-25T06:13:55.959Z,20.46
2014-06-25T06:15:00.946Z,20.47
2014-06-25T06:16:05.635Z,20.62
2014-06-25T06:17:10.309Z,20.36
2014-06-25T06:18:15.296Z,20.58
2014-06-25T06:19:19.985Z,20.73
2014-06-25T06:20:24.659Z,20.52
2014-06-25T06:21:29.645Z,20.5
2014-06-25T06:22:34.335Z,20.49
2014-06-25T06:23:39.306Z,20.61
2014-06-25T06:24:43.995Z,20.62
2014-06-25T06:25:48.685Z,20.58
2014-06-25T06:26:53.655Z,20.46
2014-06-25T06:27:58.344Z,20.38
2014-06-25T06:29:03.330Z,20.28
2014-06-25T06:30:08.020Z,20.2
2014-06-25T06:31:12.711Z,20.1
2014-06-25T06:32:17.698Z,20.2
2014-06-25T06:33:22.371Z,20.19
2014-06-25T06:34:27.061Z,20.08
2014-06-25T06:35:32.047Z,20
2014-06-25T06:36:37.048Z,19.79
2014-06-25T06:37:41.722Z,19.86
2014-06-25T06:38:46.413Z,19.75
2014-06-25T06:39:51.087Z,19.78
2014-06-25T06:40:56.072Z,19.67
2014-06-25T06:42:00.762Z,19.88
2014-06-25T06:43:05.733Z,19.75
2014-06-25T06:44:10.437Z,19.71
2014-06-25T06:45:15.129Z,19.74
2014-06-25T06:46:19.803Z,19.6
2014-06-25T06:47:24.492Z,19.65
2014-06-25T06:48:29.166Z,19.67
2014-06-25T06:49:33.856Z,19.72
2014-06-25T06:50:38.842Z,19.94
2014-06-25T06:51:43.813Z,20.08
2014-06-25T06:52:48.502Z,20
2014-06-25T06:53:53.176Z,19.99
2014-06-25T06:54:57.865Z,19.79
2014-06-25T06:56:02.555Z,19.52
2014-06-25T06:57:07.229Z,19.75
2014-06-25T06:58:12.215Z,19.64
2014-06-25T06:59:16.889Z,19.7
2014-06-25T07:00:21.579Z,19.81
2014-06-25T07:01:26.268Z,19.75
2014-06-25T07:02:30.942Z,19.88
2014-06-25T07:03:35.647Z,19.72
2014-06-25T07:04:40.337Z,19.44
2014-06-25T07:05:45.308Z,19.47
2014-06-25T07:06:50.294Z,19.32
2014-06-25T07:07:54.593Z,19.56
2014-06-25T07:08:59.579Z,19.66
2014-06-25T07:10:04.284Z,19.72
2014-06-25T07:11:08.974Z,19.66
2014-06-25T07:12:13.648Z,19.75
2014-06-25T07:13:18.338Z,19.6
2014-06-25T07:14:23.013Z,19.57
2014-06-25T07:15:27.998Z,19.68
2014-06-25T07:16:32.689Z,19.58
2014-06-25T07:17:37.378Z,19.86
2014-06-25T07:18:42.051Z,19.86
2014-06-25T07:19:47.038Z,19.68
2014-06-25T07:20:51.727Z,19.79
2014-06-25T07:21:56.402Z,19.99
2014-06-25T07:23:01.090Z,19.85
2014-06-25T07:24:06.077Z,19.7
2014-06-25T07:25:10.751Z,19.82
2014-06-25T07:26:15.440Z,19.94
2014-06-25T07:27:20.116Z,19.87
2014-06-25T07:28:24.806Z,19.72
2014-06-25T07:29:29.495Z,19.78
2014-06-25T07:30:34.185Z,19.68
2014-06-25T07:31:39.171Z,20
2014-06-25T07:32:43.844Z,20.45
2014-06-25T07:33:48.534Z,21.21
2014-06-25T07:34:53.224Z,21.48
2014-06-25T07:35:57.897Z,21.27
2014-06-25T07:37:02.586Z,21.02
2014-06-25T07:38:07.291Z,20.99
2014-06-25T07:39:12.262Z,20.72
2014-06-25T07:40:17.248Z,20.91
2014-06-25T07:41:21.940Z,21.11
2014-06-25T07:42:26.926Z,21.04
2014-06-25T07:43:31.913Z,21.12
2014-06-25T07:44:36.695Z,21.05
2014-06-25T07:45:41.369Z,20.87
2014-06-25T07:46:46.058Z,21.23
2014-06-25T07:47:50.749Z,21.61
2014-06-25T07:48:55.719Z,21.99
2014-06-25T07:50:00.408Z,22.17
2014-06-25T07:51:05.394Z,22.12
2014-06-25T07:52:10.068Z,21.93
2014-06-25T07:53:14.758Z,22.01
2014-06-25T07:54:19.447Z,22.03
2014-06-25T07:55:24.122Z,22.11
2014-06-25T07:56:28.813Z,22.67
2014-06-25T07:57:33.502Z,22.92
2014-06-25T07:58:38.175Z,23.25
2014-06-25T07:59:42.865Z,23.23
2014-06-25T08:00:47.836Z,23.22
2014-06-25T08:01:52.526Z,23.47
2014-06-25T08:02:57.511Z,23.55
2014-06-25T08:04:02.201Z,23.55
2014-06-25T08:05:06.875Z,23.42
2014-06-25T08:06:11.564Z,23.3
2014-06-25T08:07:16.271Z,23.46
2014-06-25T08:08:21.000Z,23.36
2014-06-25T08:09:25.788Z,23.28
2014-06-25T08:10:30.519Z,22.72
2014-06-25T08:11:35.236Z,22.58
2014-06-25T08:12:39.941Z,22.52
2014-06-25T08:13:44.645Z,22.66
2014-06-25T08:14:49.349Z,22.58
2014-06-25T08:15:54.349Z,22.42
2014-06-25T08:16:59.050Z,22.62
2014-06-25T08:18:03.744Z,22.91
2014-06-25T08:19:08.721Z,22.64
2014-06-25T08:20:13.415Z,22.54
2014-06-25T08:21:18.111Z,22.15
2014-06-25T08:22:22.804Z,22.24
2014-06-25T08:23:27.480Z,22.28
2014-06-25T08:24:32.172Z,22.46
2014-06-25T08:25:36.863Z,22.69
2014-06-25T08:26:41.555Z,22.7
2014-06-25T08:27:45.542Z,22.72
2014-06-25T08:28:50.235Z,22.54
2014-06-25T08:29:54.925Z,22.59
2014-06-25T08:30:59.600Z,22.91
2014-06-25T08:32:04.289Z,22.64
2014-06-25T08:33:08.979Z,22.73
2014-06-25T08:34:13.965Z,23.14
2014-06-25T08:35:18.655Z,23.13
2014-06-25T08:36:23.329Z,22.82
2014-06-25T08:37:28.019Z,22.77
2014-06-25T08:38:33.005Z,22.56
2014-06-25T08:39:37.694Z,22.38
2014-06-25T08:40:42.385Z,22.45
2014-06-25T08:41:47.371Z,22.47
2014-06-25T08:42:52.059Z,22.32
2014-06-25T08:43:56.733Z,22.07
2014-06-25T08:45:01.720Z,22.15
2014-06-25T08:46:06.408Z,22.29
2014-06-25T08:47:11.098Z,22.48
2014-06-25T08:48:15.787Z,22.62
2014-06-25T08:49:20.493Z,22.68
2014-06-25T08:50:25.182Z,22.58
2014-06-25T08:51:29.858Z,22.48
2014-06-25T08:52:34.547Z,22.66
2014-06-25T08:53:39.534Z,23.03
2014-06-25T08:54:44.207Z,22.81
2014-06-25T08:55:49.194Z,22.48
2014-06-25T08:56:53.883Z,22.46
2014-06-25T08:57:58.557Z,22.25
2014-06-25T08:59:03.247Z,22.14
2014-06-25T09:00:07.921Z,22.48
2014-06-25T09:01:12.610Z,22.64
2014-06-25T09:02:17.300Z,22.66
2014-06-25T09:03:22.269Z,22.58
2014-06-25T09:04:27.256Z,22.45
2014-06-25T09:05:31.946Z,22.18
2014-06-25T09:06:36.934Z,22.28
2014-06-25T09:07:41.623Z,22.21
2014-06-25T09:08:46.297Z,22.51
2014-06-25T09:09:50.986Z,22.77
2014-06-25T09:10:55.973Z,22.37
2014-06-25T09:12:00.944Z,22.64
2014-06-25T09:13:05.633Z,23.03
2014-06-25T09:14:10.323Z,22.9
2014-06-25T09:15:15.309Z,23.15
2014-06-25T09:16:20.295Z,23.56
2014-06-25T09:17:24.986Z,23.75
2014-06-25T09:18:29.674Z,23.78
2014-06-25T09:19:34.645Z,23.66
2014-06-25T09:20:39.335Z,23.56
2014-06-25T09:21:44.024Z,23.62
2014-06-25T09:22:48.714Z,23.48
2014-06-25T09:23:53.403Z,23.38
2014-06-25T09:24:58.093Z,23.84
2014-06-25T09:26:02.782Z,23.48
2014-06-25T09:27:07.474Z,23.11
2014-06-25T09:28:12.147Z,22.91
2014-06-25T09:29:17.134Z,22.59
2014-06-25T09:30:22.120Z,23.16
2014-06-25T09:31:26.810Z,23.46
2014-06-25T09:32:31.484Z,23.5
2014-06-25T09:33:36.173Z,23.42
2014-06-25T09:34:40.862Z,23.12
2014-06-25T09:35:45.552Z,23.17
2014-06-25T09:36:50.226Z,23.52
2014-06-25T09:37:55.212Z,23.24
2014-06-25T09:38:59.902Z,22.92
2014-06-25T09:40:04.591Z,23.2
2014-06-25T09:41:09.280Z,23.22
2014-06-25T09:42:13.954Z,23.18
2014-06-25T09:43:18.941Z,23.09
2014-06-25T09:44:23.631Z,22.8
2014-06-25T09:45:28.616Z,22.61
2014-06-25T09:46:33.602Z,22.82
2014-06-25T09:47:38.293Z,23.04
2014-06-25T09:48:42.983Z,23.29
2014-06-25T09:49:47.673Z,23.41
2014-06-25T09:50:52.644Z,23.54
2014-06-25T09:51:57.333Z,23.43
2014-06-25T09:53:02.023Z,23.43
2014-06-25T09:54:06.712Z,23.17
2014-06-25T09:55:11.714Z,22.99
2014-06-25T09:56:16.404Z,23.31
2014-06-25T09:57:21.390Z,23.24
2014-06-25T09:58:26.064Z,23.42
2014-06-25T09:59:31.049Z,22.81
2014-06-25T10:00:35.739Z,22.88
2014-06-25T10:01:40.428Z,22.78
2014-06-25T10:02:45.121Z,22.44
2014-06-25T10:03:49.794Z,22.75
2014-06-25T10:04:54.483Z,23.03
2014-06-25T10:05:59.469Z,22.86
2014-06-25T10:07:04.159Z,22.38
2014-06-25T10:08:08.833Z,22.63
2014-06-25T10:09:13.521Z,22.56
2014-06-25T10:10:18.509Z,22.46
2014-06-25T10:11:23.197Z,22.5
2014-06-25T10:12:27.888Z,22.5
2014-06-25T10:13:32.562Z,22.44
2014-06-25T10:14:37.250Z,22.66
2014-06-25T10:15:41.940Z,22.85
2014-06-25T10:16:46.629Z,22.64
2014-06-25T10:17:51.649Z,22.47
2014-06-25T10:18:56.338Z,22.37
2014-06-25T10:20:01.325Z,22.28
2014-06-25T10:21:06.013Z,22.08
2014-06-25T10:22:10.704Z,21.99
2014-06-25T10:23:15.689Z,21.86
2014-06-25T10:24:20.379Z,22.04
2014-06-25T10:25:25.366Z,21.74
2014-06-25T10:26:30.054Z,21.82
2014-06-25T10:27:34.728Z,21.69
2014-06-25T10:28:39.419Z,22.33
2014-06-25T10:29:43.420Z,22.44
2014-06-25T10:30:48.109Z,22.34
2014-06-25T10:31:52.801Z,22.01
2014-06-25T10:32:57.490Z,21.68
2014-06-25T10:34:02.179Z,22.05
2014-06-25T10:35:07.150Z,21.98
2014-06-25T10:36:11.840Z,21.86
2014-06-25T10:37:16.826Z,22.03
2014-06-25T10:38:21.500Z,22.28
2014-06-25T10:39:26.190Z,22.48
2014-06-25T10:40:30.878Z,22.51
2014-06-25T10:41:35.568Z,22.44
2014-06-25T10:42:40.258Z,22.7
2014-06-25T10:43:44.932Z,22.42
2014-06-25T10:44:49.636Z,22.25
2014-06-25T10:45:54.312Z,22.12
2014-06-25T10:46:59.002Z,22.59
2014-06-25T10:48:03.691Z,22.55
2014-06-25T10:49:08.365Z,22.4
2014-06-25T10:50:13.053Z,22.13
2014-06-25T10:51:17.744Z,22.43
2014-06-25T10:52:22.917Z,22.35
2014-06-25T10:53:27.606Z,22.46
2014-06-25T10:54:32.297Z,22.74
2014-06-25T10:55:36.986Z,22.4
2014-06-25T10:56:41.972Z,21.9
2014-06-25T10:57:46.942Z,21.9
2014-06-25T10:58:51.632Z,21.74
2014-06-25T10:59:56.635Z,22.31
2014-06-25T11:01:01.310Z,22.6
2014-06-25T11:02:06.296Z,22.39
2014-06-25T11:03:11.016Z,22.22
2014-06-25T11:04:15.691Z,22.22
2014-06-25T11:05:20.380Z,22.37
2014-06-25T11:06:25.366Z,22.55
2014-06-25T11:07:30.055Z,22.28
2014-06-25T11:08:34.729Z,22.43
2014-06-25T11:09:39.419Z,22.69
2014-06-25T11:10:44.405Z,23.04
2014-06-25T11:11:49.094Z,23.26
2014-06-25T11:12:53.768Z,22.96
2014-06-25T11:13:58.460Z,22.82
2014-06-25T11:15:03.149Z,23.12
2014-06-25T11:16:07.823Z,23.14
2014-06-25T11:17:12.512Z,23.09
2014-06-25T11:18:17.201Z,22.86
2014-06-25T11:19:21.876Z,22.85
2014-06-25T11:20:26.565Z,22.99
2014-06-25T11:21:31.254Z,22.8
2014-06-25T11:22:36.225Z,22.76
2014-06-25T11:23:40.914Z,22.84
2014-06-25T11:24:45.901Z,22.97
2014-06-25T11:25:50.590Z,23.26
2014-06-25T11:26:55.561Z,23.18
2014-06-25T11:28:00.251Z,23.23
2014-06-25T11:29:04.941Z,23.32
2014-06-25T11:30:09.927Z,23.3
2014-06-25T11:31:14.633Z,23
2014-06-25T11:32:19.307Z,23.27
2014-06-25T11:33:23.997Z,23.61
2014-06-25T11:34:28.983Z,23.68
2014-06-25T11:35:33.672Z,23.98
2014-06-25T11:36:38.361Z,23.57
2014-06-25T11:37:43.348Z,23.54
2014-06-25T11:38:47.350Z,23.23
2014-06-25T11:39:52.023Z,23.31
2014-06-25T11:40:57.010Z,23.51
2014-06-25T11:42:01.700Z,23.66
2014-06-25T11:43:06.375Z,23.6
2014-06-25T11:44:11.065Z,23.21
2014-06-25T11:45:15.754Z,23.3
2014-06-25T11:46:20.740Z,23.65
2014-06-25T11:47:25.413Z,24.11
2014-06-25T11:48:30.401Z,24.13
2014-06-25T11:49:34.403Z,24.32
2014-06-25T11:50:39.091Z,24.15
2014-06-25T11:51:44.062Z,23.97
2014-06-25T11:52:48.752Z,23.96
2014-06-25T11:53:53.738Z,23.69
2014-06-25T11:54:58.724Z,23.34
2014-06-25T11:56:03.399Z,23.06
2014-06-25T11:57:08.089Z,23.4
2014-06-25T11:58:12.779Z,23.77
2014-06-25T11:59:17.453Z,23.67
2014-06-25T12:00:22.142Z,23.5
2014-06-25T12:01:27.128Z,23.6
2014-06-25T12:02:31.817Z,23.79
2014-06-25T12:03:36.491Z,23.89
2014-06-25T12:04:41.181Z,24.11
2014-06-25T12:05:46.167Z,23.78
2014-06-25T12:06:50.856Z,23.54
2014-06-25T12:07:55.546Z,23.19
2014-06-25T12:09:00.533Z,23.39
2014-06-25T12:10:05.224Z,24.01
2014-06-25T12:11:09.914Z,24.2
2014-06-25T12:12:14.602Z,23.98
2014-06-25T12:13:19.573Z,24.18
2014-06-25T12:14:24.262Z,23.6
2014-06-25T12:15:28.952Z,23.85
2014-06-25T12:16:33.626Z,24.19
2014-06-25T12:17:38.315Z,23.96
2014-06-25T12:18:43.005Z,24.29
2014-06-25T12:19:47.709Z,24.55
2014-06-25T12:20:52.399Z,24.36
2014-06-25T12:21:57.089Z,24.05
2014-06-25T12:23:02.059Z,23.96
2014-06-25T12:24:07.048Z,23.76
2014-06-25T12:25:11.737Z,24.08
2014-06-25T12:26:16.426Z,24.4
2014-06-25T12:27:21.397Z,24.4
2014-06-25T12:28:26.102Z,24.06
2014-06-25T12:29:31.088Z,23.94
2014-06-25T12:30:36.059Z,23.88
2014-06-25T12:31:40.748Z,24.12
2014-06-25T12:32:45.750Z,24.19
2014-06-25T12:33:50.424Z,24.56
2014-06-25T12:34:55.425Z,24.49
2014-06-25T12:36:00.116Z,24.58
2014-06-25T12:37:04.804Z,24.64
2014-06-25T12:38:09.777Z,24.81
2014-06-25T12:39:14.779Z,24.7
2014-06-25T12:40:19.453Z,24.75
2014-06-25T12:41:24.143Z,24.49
2014-06-25T12:42:28.832Z,24.01
2014-06-25T12:43:33.506Z,23.73
2014-06-25T12:44:38.195Z,23.88
2014-06-25T12:45:42.885Z,23.87
2014-06-25T12:46:47.574Z,23.94
2014-06-25T12:47:52.247Z,24.02
2014-06-25T12:48:56.938Z,23.63
2014-06-25T12:50:01.923Z,23.26
2014-06-25T12:51:06.614Z,23.73
2014-06-25T12:52:11.288Z,24.04
2014-06-25T12:53:15.978Z,23.84
2014-06-25T12:54:20.667Z,23.8
2014-06-25T12:55:24.669Z,24.01
2014-06-25T12:56:29.359Z,23.72
2014-06-25T12:57:34.048Z,23.87
2014-06-25T12:58:39.019Z,23.81
2014-06-25T12:59:43.709Z,23.76
2014-06-25T13:00:48.398Z,23.75
2014-06-25T13:01:53.072Z,23.72
2014-06-25T13:02:57.761Z,23.35
2014-06-25T13:04:02.748Z,23.31
2014-06-25T13:05:07.436Z,23.24
2014-06-25T13:06:12.426Z,23.3
2014-06-25T13:07:17.411Z,23.17
2014-06-25T13:08:22.085Z,23.32
2014-06-25T13:09:26.790Z,23.46
2014-06-25T13:10:31.777Z,23.42
2014-06-25T13:11:36.466Z,23.88
2014-06-25T13:12:41.452Z,23.99
2014-06-25T13:13:46.126Z,24.32
2014-06-25T13:14:50.815Z,24.2
2014-06-25T13:15:55.802Z,23.96
2014-06-25T13:17:00.492Z,24.04
2014-06-25T13:18:05.462Z,23.85
2014-06-25T13:19:10.151Z,23.83
2014-06-25T13:20:15.140Z,24.06
2014-06-25T13:21:19.829Z,24.21
2014-06-25T13:22:24.535Z,24.07
2014-06-25T13:23:29.223Z,24.02
2014-06-25T13:24:33.912Z,23.94
2014-06-25T13:25:38.899Z,24.1
2014-06-25T13:26:43.870Z,24.11
2014-06-25T13:27:48.856Z,24.38
2014-06-25T13:28:53.546Z,24.38
2014-06-25T13:29:58.234Z,24.28
2014-06-25T13:31:02.909Z,24.42
2014-06-25T13:32:07.598Z,24.33
2014-06-25T13:33:12.287Z,24.36
2014-06-25T13:34:17.277Z,24.47
2014-06-25T13:35:22.262Z,23.98
2014-06-25T13:36:26.936Z,23.98
2014-06-25T13:37:31.625Z,24.18
2014-06-25T13:38:36.314Z,24.33
2014-06-25T13:39:41.004Z,24.3
2014-06-25T13:40:45.677Z,24.5
2014-06-25T13:41:50.368Z,24.55
2014-06-25T13:42:55.057Z,24.68
2014-06-25T13:43:59.747Z,24.37
2014-06-25T13:45:04.421Z,24.13
2014-06-25T13:46:09.110Z,24.25
2014-06-25T13:47:13.799Z,24.42
2014-06-25T13:48:18.490Z,24.42
2014-06-25T13:49:23.180Z,24.4
2014-06-25T13:50:27.869Z,24.58
2014-06-25T13:51:32.559Z,24.54
2014-06-25T13:52:37.528Z,24.7
2014-06-25T13:53:42.219Z,24.6
2014-06-25T13:54:46.908Z,24.81
2014-06-25T13:55:51.614Z,24.44
2014-06-25T13:56:56.303Z,24.53
2014-06-25T13:58:01.288Z,24.57